Latest  Newer  Older  Last 2 hours slideshow  Last 24 hours slideshow  Refresh every 5 minutes 
Current image  Latest image  Rain/snow radar  Cloud coverage sat images 

All time is UTC (add 2 hours to UTC in wintertime, 3 hours to UTC in DST for Latvia local time)

2020/10/19 20:50 EVRA 192050Z 26004KT 210V330 CAVOK 05/01 Q1013 R18/190095 NOSIG
2020/10/19 20:50 EVLA 192050Z AUTO 30008KT 260V320 9999 FEW046/// 08/M00 Q1016
2020/10/19 20:50 EVVA 192050Z AUTO 31014KT 9999 FEW040 BKN060 08/02 Q1014
2020/10/19 20:50 EYKA 192050Z 24007KT 9999 SCT044 04/01 Q1017
2020/10/19 20:50 EYPA 192050Z AUTO VRB05KT 9999 SCT046/// 09/01 Q1017
2020/10/19 20:50 EYSA 192050Z 24008KT CAVOK 03/00 Q1016 BLU NOSIG
2020/10/19 20:50 EYVI 192050Z 24007KT 9999 SCT043 03/02 Q1017 NOSIG
2020/10/19 15:20 EEKA 191520Z 30019G32KT 280V330 9999 -SHRA FEW009 SCT021CB BKN040 06/04 Q1006
2020/10/19 20:20 EEKE 192020Z AUTO 30009KT 270V330 9999NDV FEW031 SCT039 05/01 Q1012
2020/10/19 13:20 EEPU 191320Z 26014KT 230V290 9999 VCSH SCT019 06/03 Q1005
2020/10/19 20:50 EETN 192050Z 33011KT 290V350 9000 -SHRASN BKN017 SCT023CB 03/01 Q1008 R08/19//95 TEMPO 3000 SHRASN
2020/10/19 20:20 EETU 192020Z AUTO 27013KT 9999 BKN009/// OVC013/// 04/03 Q1007
   RIGA AIRPORT     EVRA               56 55N  023 58E   10   X     T          6 LV
   LIEPAJA INTL     EVLA        26406  56 31N  021 06E    4   X                8 LV
   VENTPILS         EVVA               57 21N  021 33E    6   X                8 LV
   KAUNAS           EYKA               54 54N  023 55E   77   X     T          6 LT
   PALANGA INTL     EYPA               55 55N  021 03E   10   X                6 LT
   SIAULIAI INTL    EYSA               55 54N  023 24E  135   X     T          6 LT
   VILNIUS INTL     EYVI        26730  54 38N  025 17E  197   X     T          6 LT
   KARDLA           EEKA        26116  58 59N  022 50E    4   X                8 EE
   KURESSAARE       EEKE               58 14N  022 31E    4   X                8 EE
   PARNU            EEPU               58 25N  024 28E   14   X                8 EE
   TALLINN          EETN        26038  59 24N  024 49E   40   X     T          8 EE
   TARTU            EETU               58 19N  026 41E   67   X                8 EE